createdAt,value
2018-03-20T00:02:06.291Z,11.10
2018-03-20T00:04:34.167Z,11.10
2018-03-20T00:07:02.039Z,11.37
2018-03-20T00:09:29.877Z,11.23
2018-03-20T00:11:57.763Z,12.50
2018-03-20T00:14:25.609Z,12.10
2018-03-20T00:16:53.480Z,11.63
2018-03-20T00:19:21.421Z,12.20
2018-03-20T00:21:49.269Z,12.50
2018-03-20T00:24:17.127Z,12.20
2018-03-20T00:26:45.200Z,12.37
2018-03-20T00:29:13.084Z,11.83
2018-03-20T00:31:40.924Z,10.60
2018-03-20T00:34:08.875Z,12.33
2018-03-20T00:36:37.140Z,11.23
2018-03-20T00:39:05.173Z,11.10
2018-03-20T00:41:33.135Z,11.40
2018-03-20T00:44:01.016Z,10.77
2018-03-20T00:46:28.903Z,10.47
2018-03-20T00:48:56.791Z,9.83
2018-03-20T00:51:24.659Z,9.40
2018-03-20T00:53:52.628Z,9.67
2018-03-20T00:56:20.522Z,9.87
2018-03-20T00:58:48.496Z,9.37
2018-03-20T01:01:16.333Z,9.83
2018-03-20T01:03:44.194Z,11.20
2018-03-20T01:06:12.076Z,9.60
2018-03-20T01:08:39.960Z,11.00
2018-03-20T01:11:07.876Z,10.07
2018-03-20T01:13:35.716Z,10.10
2018-03-20T01:16:03.571Z,10.60
2018-03-20T01:18:31.435Z,11.10
2018-03-20T01:20:59.392Z,10.90
2018-03-20T01:23:27.294Z,11.47
2018-03-20T01:25:55.255Z,11.10
2018-03-20T01:28:23.156Z,11.23
2018-03-20T01:30:51.016Z,12.10
2018-03-20T01:33:18.883Z,11.60
2018-03-20T01:35:46.800Z,11.90
2018-03-20T01:38:14.668Z,11.37
2018-03-20T01:40:42.559Z,10.43
2018-03-20T01:43:10.492Z,10.73
2018-03-20T01:45:38.377Z,11.47
2018-03-20T01:48:06.303Z,11.20
2018-03-20T01:50:34.143Z,11.80
2018-03-20T01:53:08.200Z,11.17
2018-03-20T01:55:36.038Z,11.10
2018-03-20T01:58:03.884Z,11.30
2018-03-20T02:00:31.749Z,11.30
2018-03-20T02:02:59.666Z,11.50
2018-03-20T02:05:27.553Z,10.67
2018-03-20T02:07:55.421Z,10.53
2018-03-20T02:10:23.267Z,9.53
2018-03-20T02:12:51.407Z,9.87
2018-03-20T02:15:19.263Z,9.27
2018-03-20T02:17:47.187Z,9.07
2018-03-20T02:20:15.036Z,9.23
2018-03-20T02:22:42.887Z,8.63
2018-03-20T02:25:10.764Z,8.10
2018-03-20T02:27:38.602Z,8.13
2018-03-20T02:30:06.475Z,8.30
2018-03-20T02:32:34.362Z,7.50
2018-03-20T02:35:02.245Z,7.97
2018-03-20T02:37:30.125Z,8.50
2018-03-20T02:39:57.977Z,7.80
2018-03-20T02:42:25.837Z,7.10
2018-03-20T02:44:53.732Z,8.10
2018-03-20T02:47:21.608Z,7.00
2018-03-20T02:49:49.488Z,7.00
2018-03-20T02:52:17.398Z,7.87
2018-03-20T02:54:45.328Z,6.77
2018-03-20T02:57:13.186Z,7.33
2018-03-20T02:59:41.056Z,7.60
2018-03-20T03:02:08.909Z,7.30
2018-03-20T03:04:36.759Z,6.97
2018-03-20T03:07:04.650Z,7.53
2018-03-20T03:09:32.506Z,6.47
2018-03-20T03:12:00.367Z,6.50
2018-03-20T03:14:28.255Z,6.80
2018-03-20T03:16:56.100Z,7.40
2018-03-20T03:19:23.966Z,7.33
2018-03-20T03:21:51.858Z,6.87
2018-03-20T03:24:19.724Z,7.17
2018-03-20T03:26:47.599Z,7.10
2018-03-20T03:29:15.486Z,7.93
2018-03-20T03:31:43.345Z,7.93
2018-03-20T03:34:11.210Z,8.20
2018-03-20T03:36:39.086Z,9.30
2018-03-20T03:39:06.987Z,9.43
2018-03-20T03:41:34.837Z,8.70
2018-03-20T03:44:02.717Z,9.00
2018-03-20T03:46:30.576Z,8.93
2018-03-20T03:48:58.440Z,9.20
2018-03-20T03:51:26.347Z,9.07
2018-03-20T03:53:54.252Z,8.90
2018-03-20T03:56:22.113Z,9.00
2018-03-20T03:58:49.990Z,9.20
2018-03-20T04:01:17.835Z,8.90
2018-03-20T04:03:45.679Z,9.60
2018-03-20T04:06:13.556Z,9.03
2018-03-20T04:08:41.411Z,9.70
2018-03-20T04:11:09.283Z,9.77
2018-03-20T04:13:37.164Z,9.20
2018-03-20T04:16:05.006Z,8.00
2018-03-20T04:18:32.848Z,8.70
2018-03-20T04:21:00.748Z,8.57
2018-03-20T04:23:28.609Z,8.50
2018-03-20T04:25:56.547Z,11.67
2018-03-20T04:28:24.415Z,10.97
2018-03-20T04:30:52.267Z,12.80
2018-03-20T04:33:20.159Z,11.57
2018-03-20T04:35:48.007Z,10.30
2018-03-20T04:38:15.925Z,10.10
2018-03-20T04:40:43.835Z,8.70
2018-03-20T04:43:11.681Z,7.50
2018-03-20T04:45:39.586Z,8.40
2018-03-20T04:48:07.441Z,7.77
2018-03-20T04:50:35.348Z,8.00
2018-03-20T04:53:03.256Z,6.90
2018-03-20T04:55:31.109Z,7.47
2018-03-20T04:57:58.983Z,7.90
2018-03-20T05:00:26.853Z,8.40
2018-03-20T05:02:54.732Z,8.43
2018-03-20T05:05:22.595Z,8.70
2018-03-20T05:07:50.467Z,9.67
2018-03-20T05:10:18.433Z,9.07
2018-03-20T05:12:46.389Z,9.20
2018-03-20T05:15:14.348Z,8.40
2018-03-20T05:17:42.223Z,9.10
2018-03-20T05:20:25.154Z,9.07
2018-03-20T05:22:53.026Z,9.30
2018-03-20T05:25:20.958Z,8.87
2018-03-20T05:27:48.839Z,8.03
2018-03-20T05:30:16.703Z,8.53
2018-03-20T05:32:44.645Z,8.40
2018-03-20T05:35:12.567Z,8.50
2018-03-20T05:37:40.442Z,8.80
2018-03-20T05:40:08.348Z,7.70
2018-03-20T05:42:38.257Z,7.87
2018-03-20T05:45:06.164Z,8.03
2018-03-20T05:47:37.939Z,8.30
2018-03-20T05:50:20.756Z,8.30
2018-03-20T05:52:48.678Z,7.70
2018-03-20T05:55:16.622Z,8.00
2018-03-20T05:57:44.496Z,8.83
2018-03-20T06:00:12.372Z,8.93
2018-03-20T06:02:40.252Z,8.40
2018-03-20T06:05:08.121Z,9.10
2018-03-20T06:07:36.158Z,8.93
2018-03-20T06:10:04.034Z,8.13
2018-03-20T06:12:31.896Z,8.63
2018-03-20T06:14:59.783Z,8.10
2018-03-20T06:17:27.702Z,8.30
2018-03-20T06:19:55.552Z,9.40
2018-03-20T06:22:23.445Z,8.60
2018-03-20T06:24:51.326Z,9.27
2018-03-20T06:27:19.217Z,9.33
2018-03-20T06:29:47.101Z,8.33
2018-03-20T06:32:14.969Z,8.57
2018-03-20T06:34:42.803Z,8.07
2018-03-20T06:37:10.688Z,7.83
2018-03-20T06:39:38.557Z,8.10
2018-03-20T06:42:06.428Z,7.73
2018-03-20T06:44:34.300Z,7.90
2018-03-20T06:47:02.181Z,7.90
2018-03-20T06:49:30.033Z,7.33
2018-03-20T06:51:57.922Z,8.10
2018-03-20T06:54:25.801Z,7.33
2018-03-20T06:56:53.657Z,7.90
2018-03-20T06:59:21.560Z,7.90
2018-03-20T07:01:49.408Z,8.77
2018-03-20T07:04:17.325Z,8.10
2018-03-20T07:06:45.209Z,8.40
2018-03-20T07:09:13.114Z,8.63
2018-03-20T07:11:40.990Z,8.37
2018-03-20T07:14:08.920Z,8.33
2018-03-20T07:16:36.820Z,7.43
2018-03-20T07:19:04.715Z,8.90
2018-03-20T07:21:32.627Z,8.80
2018-03-20T07:24:00.506Z,9.57
2018-03-20T07:26:28.353Z,9.23
2018-03-20T07:28:56.241Z,10.17
2018-03-20T07:31:24.086Z,9.90
2018-03-20T07:33:51.950Z,9.47
2018-03-20T07:36:19.845Z,9.40
2018-03-20T07:38:47.726Z,10.07
2018-03-20T07:41:15.610Z,11.90
2018-03-20T07:43:43.472Z,9.63
2018-03-20T07:46:11.343Z,10.77
2018-03-20T07:48:39.212Z,11.10
2018-03-20T07:51:07.089Z,15.47
2018-03-20T07:53:34.938Z,12.00
2018-03-20T07:56:02.890Z,12.37
2018-03-20T07:58:30.792Z,12.50
2018-03-20T08:00:58.705Z,10.70
2018-03-20T08:03:26.572Z,10.83
2018-03-20T08:05:54.546Z,11.80
2018-03-20T08:08:22.414Z,13.83
2018-03-20T08:10:50.278Z,16.93
2018-03-20T08:13:18.177Z,11.40
2018-03-20T08:15:46.046Z,15.60
2018-03-20T08:18:13.927Z,13.20
2018-03-20T08:20:41.808Z,11.70
2018-03-20T08:23:09.677Z,24.77
2018-03-20T08:25:37.631Z,11.83
2018-03-20T08:28:05.614Z,12.37
2018-03-20T08:30:33.463Z,11.50
2018-03-20T08:33:01.330Z,14.13
2018-03-20T08:35:29.212Z,16.40
2018-03-20T08:37:57.084Z,13.10
2018-03-20T08:40:25.052Z,11.93
2018-03-20T08:42:53.079Z,13.33
2018-03-20T08:45:20.986Z,19.10
2018-03-20T08:47:48.853Z,12.73
2018-03-20T08:50:16.721Z,16.10
2018-03-20T08:52:44.596Z,11.73
2018-03-20T08:55:12.487Z,15.83
2018-03-20T08:57:40.463Z,16.27
2018-03-20T09:00:08.347Z,15.37
2018-03-20T09:02:36.199Z,14.30
2018-03-20T09:05:04.141Z,14.87
2018-03-20T09:07:32.020Z,15.83
2018-03-20T09:09:59.959Z,15.37
2018-03-20T09:12:27.907Z,14.40
2018-03-20T09:14:55.777Z,14.10
2018-03-20T09:17:23.685Z,16.60
2018-03-20T09:19:51.700Z,14.20
2018-03-20T09:22:19.622Z,14.70
2018-03-20T09:24:48.463Z,18.20
2018-03-20T09:27:16.344Z,15.00
2018-03-20T09:29:45.154Z,16.47
2018-03-20T09:32:13.045Z,16.87
2018-03-20T09:34:40.936Z,18.10
2018-03-20T09:37:08.850Z,16.33
2018-03-20T09:39:36.790Z,17.10
2018-03-20T09:42:04.711Z,17.37
2018-03-20T09:44:32.868Z,20.93
2018-03-20T09:47:00.810Z,22.47
2018-03-20T09:49:28.715Z,19.80
2018-03-20T09:51:56.658Z,21.33
2018-03-20T09:54:24.552Z,21.27
2018-03-20T09:56:52.488Z,26.13
2018-03-20T09:59:21.013Z,27.60
2018-03-20T10:01:48.954Z,23.60
2018-03-20T10:04:16.873Z,25.90
2018-03-20T10:06:44.802Z,27.10
2018-03-20T10:09:12.764Z,24.07
2018-03-20T10:11:40.709Z,24.10
2018-03-20T10:14:08.762Z,40.33
2018-03-20T10:16:37.085Z,17.53
2018-03-20T10:19:05.039Z,20.30
2018-03-20T10:21:32.906Z,20.20
2018-03-20T10:24:00.810Z,19.20
2018-03-20T10:26:28.720Z,23.07
2018-03-20T10:28:56.708Z,19.23
2018-03-20T10:31:24.615Z,18.43
2018-03-20T10:33:53.011Z,20.67
2018-03-20T10:36:20.904Z,20.47
2018-03-20T10:38:50.769Z,20.10
2018-03-20T10:41:18.689Z,17.80
2018-03-20T10:43:46.629Z,20.80
2018-03-20T10:46:14.459Z,19.83
2018-03-20T10:48:42.372Z,18.97
2018-03-20T10:51:10.353Z,18.87
2018-03-20T10:53:38.703Z,16.60
2018-03-20T10:56:06.867Z,20.63
2018-03-20T10:58:35.266Z,19.93
2018-03-20T11:01:05.291Z,19.40
2018-03-20T11:03:33.228Z,18.87
2018-03-20T11:06:01.157Z,17.80
2018-03-20T11:08:29.446Z,17.00
2018-03-20T11:10:57.369Z,18.47
2018-03-20T11:13:25.265Z,16.23
2018-03-20T11:15:53.119Z,18.30
2018-03-20T11:18:21.021Z,11.97
2018-03-20T11:20:49.061Z,16.63
2018-03-20T11:23:16.917Z,18.33
2018-03-20T11:25:44.859Z,18.97
2018-03-20T11:28:12.695Z,19.10
2018-03-20T11:30:40.548Z,17.60
2018-03-20T11:33:08.446Z,14.80
2018-03-20T11:35:36.380Z,17.87
2018-03-20T11:38:04.277Z,20.97
2018-03-20T11:40:32.187Z,17.30
2018-03-20T11:43:00.048Z,16.10
2018-03-20T11:45:27.909Z,13.53
2018-03-20T11:47:55.804Z,14.23
2018-03-20T11:50:23.742Z,16.20
2018-03-20T11:52:51.656Z,16.00
2018-03-20T11:55:19.571Z,9.50
2018-03-20T11:57:47.900Z,14.33
2018-03-20T12:00:15.764Z,18.47
2018-03-20T12:02:43.693Z,16.43
2018-03-20T12:05:11.586Z,16.00
2018-03-20T12:07:45.581Z,15.70
2018-03-20T12:10:13.508Z,17.40
2018-03-20T12:12:41.352Z,17.60
2018-03-20T12:15:09.233Z,19.37
2018-03-20T12:17:37.133Z,15.67
2018-03-20T12:20:04.991Z,14.03
2018-03-20T12:22:32.940Z,16.30
2018-03-20T12:25:00.804Z,10.30
2018-03-20T12:27:28.653Z,14.63
2018-03-20T12:29:56.530Z,15.13
2018-03-20T12:32:24.721Z,13.90
2018-03-20T12:34:52.585Z,16.00
2018-03-20T12:37:20.486Z,11.77
2018-03-20T12:39:48.394Z,14.23
2018-03-20T12:42:16.385Z,12.00
2018-03-20T12:44:44.257Z,14.40
2018-03-20T12:47:12.125Z,11.20
2018-03-20T12:49:40.047Z,12.13
2018-03-20T12:52:07.939Z,13.50
2018-03-20T12:54:35.873Z,11.87
2018-03-20T12:57:03.781Z,13.17
2018-03-20T12:59:31.720Z,13.10
2018-03-20T13:01:59.596Z,13.53
2018-03-20T13:04:27.468Z,9.33
2018-03-20T13:06:55.389Z,8.07
2018-03-20T13:09:23.236Z,9.87
2018-03-20T13:11:51.115Z,11.50
2018-03-20T13:14:18.971Z,10.93
2018-03-20T13:16:46.841Z,7.43
2018-03-20T13:19:14.837Z,12.73
2018-03-20T13:21:42.645Z,13.80
2018-03-20T13:24:10.546Z,10.53
2018-03-20T13:26:38.468Z,13.30
2018-03-20T13:29:06.357Z,12.10
2018-03-20T13:31:34.231Z,12.60
2018-03-20T13:34:02.102Z,13.70
2018-03-20T13:36:29.985Z,8.60
2018-03-20T13:38:57.898Z,13.50
2018-03-20T13:41:25.777Z,13.00
2018-03-20T13:43:53.675Z,11.80
2018-03-20T13:46:21.528Z,9.90
2018-03-20T13:48:49.399Z,9.03
2018-03-20T13:51:18.081Z,6.10
2018-03-20T13:53:45.985Z,8.77
2018-03-20T13:56:13.934Z,9.37
2018-03-20T13:58:41.919Z,12.27
2018-03-20T14:01:09.789Z,10.70
2018-03-20T14:03:37.649Z,11.90
2018-03-20T14:06:05.531Z,14.30
2018-03-20T14:08:33.442Z,13.73
2018-03-20T14:11:02.341Z,11.93
2018-03-20T14:13:30.271Z,14.30
2018-03-20T14:15:58.236Z,10.07
2018-03-20T14:18:26.108Z,10.07
2018-03-20T14:20:54.101Z,10.37
2018-03-20T14:23:22.051Z,9.03
2018-03-20T14:25:49.904Z,10.83
2018-03-20T14:28:17.781Z,7.67
2018-03-20T14:30:46.492Z,9.80
2018-03-20T14:33:14.400Z,13.93
2018-03-20T14:35:42.341Z,8.93
2018-03-20T14:38:10.211Z,8.90
2018-03-20T14:40:38.074Z,10.90
2018-03-20T14:43:06.072Z,9.30
2018-03-20T14:45:33.954Z,10.30
2018-03-20T14:48:01.824Z,10.07
2018-03-20T14:50:29.708Z,10.13
2018-03-20T14:52:57.548Z,7.60
2018-03-20T14:55:25.714Z,8.27
2018-03-20T14:57:53.719Z,9.83
2018-03-20T15:00:21.583Z,9.80
2018-03-20T15:02:49.808Z,12.50
2018-03-20T15:05:17.750Z,14.90
2018-03-20T15:07:45.676Z,13.80
2018-03-20T15:10:13.627Z,10.30
2018-03-20T15:12:41.556Z,8.90
2018-03-20T15:15:09.444Z,9.70
2018-03-20T15:17:37.325Z,9.00
2018-03-20T15:20:05.272Z,7.67
2018-03-20T15:22:33.149Z,9.30
2018-03-20T15:25:00.996Z,8.00
2018-03-20T15:27:28.888Z,7.50
2018-03-20T15:29:56.743Z,8.90
2018-03-20T15:32:24.649Z,6.87
2018-03-20T15:34:52.556Z,5.03
2018-03-20T15:37:20.434Z,5.20
2018-03-20T15:39:48.307Z,4.20
2018-03-20T15:42:16.306Z,5.07
2018-03-20T15:44:44.213Z,3.73
2018-03-20T15:47:12.056Z,2.40
2018-03-20T15:49:40.062Z,3.33
2018-03-20T15:52:07.949Z,3.10
2018-03-20T15:54:35.909Z,3.20
2018-03-20T15:57:03.793Z,1.57
2018-03-20T15:59:31.675Z,2.53
2018-03-20T16:02:00.457Z,1.87
2018-03-20T16:04:28.302Z,2.13
2018-03-20T16:06:56.216Z,1.93
2018-03-20T16:09:24.096Z,2.30
2018-03-20T16:11:51.955Z,1.47
2018-03-20T16:14:19.958Z,1.93
2018-03-20T16:16:47.954Z,1.60
2018-03-20T16:19:15.820Z,1.60
2018-03-20T16:21:43.873Z,2.23
2018-03-20T16:24:11.769Z,2.63
2018-03-20T16:26:39.735Z,1.83
2018-03-20T16:29:07.618Z,1.10
2018-03-20T16:31:35.621Z,2.00
2018-03-20T16:34:03.479Z,2.90
2018-03-20T16:36:31.474Z,2.30
2018-03-20T16:38:59.429Z,1.83
2018-03-20T16:41:27.294Z,2.60
2018-03-20T16:43:55.176Z,1.60
2018-03-20T16:46:23.025Z,2.37
2018-03-20T16:48:50.932Z,1.80
2018-03-20T16:51:18.855Z,1.80
2018-03-20T16:53:46.733Z,2.10
2018-03-20T16:56:14.818Z,1.50
2018-03-20T16:58:42.683Z,1.23
2018-03-20T17:01:10.567Z,1.20
2018-03-20T17:03:38.425Z,1.53
2018-03-20T17:06:06.344Z,1.37
2018-03-20T17:08:34.240Z,2.13
2018-03-20T17:11:02.133Z,2.40
2018-03-20T17:13:31.052Z,1.93
2018-03-20T17:15:58.917Z,3.10
2018-03-20T17:18:26.895Z,1.77
2018-03-20T17:20:55.428Z,2.60
2018-03-20T17:23:23.333Z,3.60
2018-03-20T17:25:51.230Z,2.40
2018-03-20T17:28:19.106Z,2.23
2018-03-20T17:30:47.148Z,3.30
2018-03-20T17:33:15.029Z,4.60
2018-03-20T17:35:42.896Z,3.70
2018-03-20T17:38:10.798Z,4.10
2018-03-20T17:40:38.741Z,3.73
2018-03-20T17:43:06.665Z,4.00
2018-03-20T17:45:34.579Z,3.20
2018-03-20T17:48:02.457Z,4.37
2018-03-20T17:50:30.295Z,4.40
2018-03-20T17:52:58.176Z,3.30
2018-03-20T17:55:26.019Z,2.70
2018-03-20T17:57:53.872Z,2.27
2018-03-20T18:00:21.779Z,2.60
2018-03-20T18:02:49.673Z,3.00
2018-03-20T18:05:17.548Z,2.13
2018-03-20T18:07:45.442Z,3.30
2018-03-20T18:10:13.298Z,2.73
2018-03-20T18:12:41.249Z,2.90
2018-03-20T18:15:09.152Z,2.63
2018-03-20T18:17:37.080Z,4.67
2018-03-20T18:20:05.044Z,3.60
2018-03-20T18:22:33.078Z,4.67
2018-03-20T18:25:00.947Z,3.87
2018-03-20T18:27:28.803Z,3.73
2018-03-20T18:29:56.692Z,4.20
2018-03-20T18:32:24.576Z,4.17
2018-03-20T18:34:52.439Z,3.00
2018-03-20T18:37:20.314Z,3.53
2018-03-20T18:39:48.158Z,3.53
2018-03-20T18:42:16.117Z,3.00
2018-03-20T18:44:43.979Z,3.73
2018-03-20T18:47:11.838Z,4.07
2018-03-20T18:49:39.770Z,2.30
2018-03-20T18:52:07.645Z,1.87
2018-03-20T18:54:35.584Z,3.53
2018-03-20T18:57:03.433Z,3.93
2018-03-20T18:59:31.348Z,4.40
2018-03-20T19:01:59.206Z,5.80
2018-03-20T19:04:27.196Z,5.00
2018-03-20T19:06:55.092Z,4.00
2018-03-20T19:09:22.996Z,3.20
2018-03-20T19:11:50.889Z,4.23
2018-03-20T19:14:18.788Z,2.50
2018-03-20T19:16:46.685Z,2.80
2018-03-20T19:19:14.567Z,3.10
2018-03-20T19:21:42.557Z,3.40
2018-03-20T19:24:10.480Z,2.37
2018-03-20T19:26:38.924Z,4.43
2018-03-20T19:29:06.798Z,3.87
2018-03-20T19:31:34.739Z,4.10
2018-03-20T19:34:02.604Z,2.93
2018-03-20T19:36:30.477Z,4.37
2018-03-20T19:38:58.319Z,2.73
2018-03-20T19:41:26.177Z,3.30
2018-03-20T19:43:54.129Z,4.13
2018-03-20T19:46:22.073Z,2.80
2018-03-20T19:48:49.984Z,5.40
2018-03-20T19:51:17.941Z,3.93
2018-03-20T19:53:45.873Z,3.43
2018-03-20T19:56:13.759Z,4.70
2018-03-20T19:58:41.624Z,4.20
2018-03-20T20:01:10.288Z,3.33
2018-03-20T20:03:38.140Z,5.10
2018-03-20T20:06:06.074Z,3.30
2018-03-20T20:08:34.897Z,2.70
2018-03-20T20:11:02.759Z,4.17
2018-03-20T20:13:30.666Z,3.50
2018-03-20T20:15:58.540Z,3.90
2018-03-20T20:18:26.432Z,3.87
2018-03-20T20:20:54.310Z,3.80
2018-03-20T20:23:22.525Z,3.70
2018-03-20T20:25:50.448Z,4.47
2018-03-20T20:28:18.345Z,3.83
2018-03-20T20:30:46.238Z,5.23
2018-03-20T20:33:14.097Z,9.17
2018-03-20T20:35:41.941Z,6.50
2018-03-20T20:38:09.853Z,5.20
2018-03-20T20:40:37.714Z,5.73
2018-03-20T20:43:05.572Z,5.37
2018-03-20T20:45:34.124Z,4.80
2018-03-20T20:48:02.013Z,5.20
2018-03-20T20:50:29.865Z,4.10
2018-03-20T20:52:57.775Z,6.40
2018-03-20T20:55:25.626Z,5.17
2018-03-20T20:57:53.483Z,4.93
2018-03-20T21:00:21.404Z,5.67
2018-03-20T21:02:49.267Z,4.90
2018-03-20T21:05:17.173Z,3.90
2018-03-20T21:07:45.053Z,4.60
2018-03-20T21:10:12.904Z,3.73
2018-03-20T21:12:40.879Z,4.40
2018-03-20T21:15:08.763Z,4.57
2018-03-20T21:17:36.655Z,4.60
2018-03-20T21:20:04.541Z,5.03
2018-03-20T21:22:33.490Z,5.03
2018-03-20T21:25:01.380Z,4.63
2018-03-20T21:27:29.219Z,4.80
2018-03-20T21:29:57.072Z,4.87
2018-03-20T21:32:25.985Z,4.77
2018-03-20T21:34:53.835Z,4.83
2018-03-20T21:37:21.738Z,5.20
2018-03-20T21:39:49.688Z,5.57
2018-03-20T21:42:17.570Z,5.13
2018-03-20T21:44:45.440Z,5.10
2018-03-20T21:47:13.309Z,4.70
2018-03-20T21:49:41.345Z,5.20
2018-03-20T21:52:09.311Z,4.10
2018-03-20T21:54:37.168Z,4.47
2018-03-20T21:57:05.071Z,5.30
2018-03-20T21:59:32.969Z,4.33
2018-03-20T22:02:00.830Z,5.57
2018-03-20T22:04:28.703Z,5.73
2018-03-20T22:06:56.578Z,5.40
2018-03-20T22:09:24.463Z,4.80
2018-03-20T22:11:52.338Z,4.83
2018-03-20T22:14:20.216Z,5.00
2018-03-20T22:16:48.087Z,4.63
2018-03-20T22:19:15.957Z,4.20
2018-03-20T22:21:43.837Z,4.10
2018-03-20T22:24:11.671Z,4.53
2018-03-20T22:26:39.547Z,5.10
2018-03-20T22:29:08.280Z,3.67
2018-03-20T22:31:36.143Z,5.20
2018-03-20T22:34:04.045Z,5.30
2018-03-20T22:36:31.971Z,4.27
2018-03-20T22:38:59.898Z,4.73
2018-03-20T22:41:27.757Z,4.17
2018-03-20T22:43:55.634Z,3.40
2018-03-20T22:46:23.495Z,4.77
2018-03-20T22:48:51.478Z,5.43
2018-03-20T22:51:19.428Z,5.87
2018-03-20T22:53:48.157Z,5.37
2018-03-20T22:56:16.042Z,5.27
2018-03-20T22:58:43.996Z,4.93
2018-03-20T23:01:11.874Z,4.77
2018-03-20T23:03:39.765Z,5.00
2018-03-20T23:06:07.757Z,4.50
2018-03-20T23:08:35.622Z,4.37
2018-03-20T23:11:03.503Z,4.00
2018-03-20T23:13:31.389Z,4.20
2018-03-20T23:15:59.296Z,5.10
2018-03-20T23:18:27.200Z,4.20
2018-03-20T23:20:55.066Z,4.97
2018-03-20T23:23:22.941Z,4.03
2018-03-20T23:25:50.818Z,4.80
2018-03-20T23:28:18.694Z,4.87
2018-03-20T23:30:46.632Z,5.30
2018-03-20T23:33:14.576Z,4.17
2018-03-20T23:35:42.428Z,4.83
2018-03-20T23:38:10.297Z,5.00
2018-03-20T23:40:38.209Z,5.20
2018-03-20T23:43:06.089Z,5.03
2018-03-20T23:45:33.940Z,5.77
2018-03-20T23:48:01.826Z,5.37
2018-03-20T23:50:29.766Z,5.13
2018-03-20T23:52:57.593Z,6.00
2018-03-20T23:55:25.513Z,4.33
2018-03-20T23:57:53.382Z,5.90
